createdAt,value
2022-09-23T00:02:10.464Z,96703.09
2022-09-23T00:04:38.748Z,96705.97
2022-09-23T00:07:06.765Z,96697.06
2022-09-23T00:09:34.798Z,96696.50
2022-09-23T00:12:08.846Z,96705.16
2022-09-23T00:14:42.050Z,96705.44
2022-09-23T00:17:11.944Z,96702.09
2022-09-23T00:19:40.692Z,96703.34
2022-09-23T00:22:08.894Z,96443.28
2022-09-23T00:24:36.956Z,96704.41
2022-09-23T00:27:04.785Z,96698.88
2022-09-23T00:29:33.711Z,96700.16
2022-09-23T00:32:04.937Z,96697.19
2022-09-23T00:34:33.029Z,96691.09
2022-09-23T00:37:00.991Z,96693.09
2022-09-23T00:39:28.550Z,96695.53
2022-09-23T00:41:56.465Z,96692.19
2022-09-23T00:44:41.689Z,96682.97
2022-09-23T00:47:12.646Z,96689.41
2022-09-23T00:49:42.785Z,96689.84
2022-09-23T00:52:11.215Z,96693.03
2022-09-23T00:54:38.851Z,96689.81
2022-09-23T00:57:07.029Z,96681.47
2022-09-23T00:59:38.807Z,96683.84
2022-09-23T01:02:06.769Z,96682.44
2022-09-23T01:04:36.201Z,96679.81
2022-09-23T01:07:06.278Z,96677.19
2022-09-23T01:09:36.890Z,96676.53
2022-09-23T01:12:07.287Z,96674.13
2022-09-23T01:14:37.688Z,96678.03
2022-09-23T01:17:06.166Z,96671.72
2022-09-23T01:19:48.735Z,96668.50
2022-09-23T01:22:19.188Z,96662.38
2022-09-23T01:24:48.204Z,96664.91
2022-09-23T01:27:27.781Z,96668.19
2022-09-23T01:30:19.405Z,96672.53
2022-09-23T01:32:54.921Z,96670.72
2022-09-23T01:35:27.389Z,96669.31
2022-09-23T01:37:57.573Z,96665.66
2022-09-23T01:40:29.726Z,96656.22
2022-09-23T01:42:58.461Z,96664.06
2022-09-23T01:45:27.082Z,96664.06
2022-09-23T01:47:57.257Z,96657.44
2022-09-23T01:50:43.963Z,96651.78
2022-09-23T01:53:13.404Z,96652.38
2022-09-23T01:55:41.466Z,96651.03
2022-09-23T01:58:09.612Z,96646.63
2022-09-23T02:00:43.104Z,96644.28
2022-09-23T02:03:13.617Z,96638.56
2022-09-23T02:05:43.563Z,96640.38
2022-09-23T02:08:11.955Z,96638.25
2022-09-23T02:10:42.119Z,96644.47
2022-09-23T02:13:13.852Z,96641.59
2022-09-23T02:15:45.226Z,96634.28
2022-09-23T02:18:15.462Z,96643.19
2022-09-23T02:20:44.117Z,96641.31
2022-09-23T02:23:13.135Z,96641.66
2022-09-23T02:25:41.338Z,96638.28
2022-09-23T02:28:10.721Z,96637.63
2022-09-23T02:30:39.956Z,96627.91
2022-09-23T02:33:08.122Z,96642.88
2022-09-23T02:35:37.977Z,96640.22
2022-09-23T02:38:09.019Z,96637.69
2022-09-23T02:40:38.126Z,96638.72
2022-09-23T02:43:07.185Z,96642.63
2022-09-23T02:45:36.098Z,96636.13
2022-09-23T02:48:04.665Z,96674.63
2022-09-23T02:50:35.006Z,96631.19
2022-09-23T02:53:04.754Z,96671.84
2022-09-23T02:55:32.751Z,96627.53
2022-09-23T02:58:01.492Z,96627.63
2022-09-23T03:00:31.586Z,96623.31
2022-09-23T03:03:06.639Z,96622.88
2022-09-23T03:05:37.723Z,96626.25
2022-09-23T03:08:18.362Z,96625.84
2022-09-23T03:10:47.730Z,96624.13
2022-09-23T03:13:22.195Z,96617.00
2022-09-23T03:15:57.590Z,96625.25
2022-09-23T03:18:28.279Z,96619.41
2022-09-23T03:20:57.337Z,96613.94
2022-09-23T03:23:27.704Z,96617.66
2022-09-23T03:25:56.126Z,96612.41
2022-09-23T03:28:25.510Z,96615.31
2022-09-23T03:30:53.415Z,96606.69
2022-09-23T03:33:28.407Z,96606.22
2022-09-23T03:36:15.514Z,96607.06
2022-09-23T03:38:45.585Z,96600.66
2022-09-23T03:41:16.655Z,96599.25
2022-09-23T03:43:46.761Z,96600.91
2022-09-23T03:46:28.602Z,96599.72
2022-09-23T03:48:57.012Z,96597.16
2022-09-23T03:51:25.014Z,96590.84
2022-09-23T03:53:56.798Z,96593.06
2022-09-23T03:56:28.978Z,96592.22
2022-09-23T03:58:59.194Z,96586.84
2022-09-23T04:01:27.225Z,96592.84
2022-09-23T04:03:57.916Z,96585.56
2022-09-23T04:06:25.996Z,96582.09
2022-09-23T04:08:55.221Z,96582.09
2022-09-23T04:11:23.129Z,96584.28
2022-09-23T04:13:52.992Z,96578.28
2022-09-23T04:16:21.091Z,96577.81
2022-09-23T04:18:50.574Z,96582.25
2022-09-23T04:21:18.263Z,96580.19
2022-09-23T04:23:46.555Z,96574.81
2022-09-23T04:26:16.334Z,96578.13
2022-09-23T04:28:44.239Z,96577.16
2022-09-23T04:31:11.808Z,96573.03
2022-09-23T04:33:39.550Z,96577.69
2022-09-23T04:36:10.019Z,96575.16
2022-09-23T04:38:41.506Z,96572.31
2022-09-23T04:41:12.004Z,96576.13
2022-09-23T04:43:42.256Z,96568.94
2022-09-23T04:46:14.196Z,96570.69
2022-09-23T04:48:43.030Z,96570.19
2022-09-23T04:51:11.206Z,96570.91
2022-09-23T04:53:39.869Z,96566.78
2022-09-23T04:56:09.581Z,96570.75
2022-09-23T04:58:37.282Z,96577.97
2022-09-23T05:01:14.286Z,96585.78
2022-09-23T05:03:42.557Z,96581.56
2022-09-23T05:06:11.114Z,96583.94
2022-09-23T05:08:40.949Z,96582.53
2022-09-23T05:11:09.076Z,96585.81
2022-09-23T05:13:37.395Z,96589.31
2022-09-23T05:16:09.040Z,96620.63
2022-09-23T05:18:42.821Z,96596.03
2022-09-23T05:21:13.412Z,96596.44
2022-09-23T05:23:41.684Z,96634.56
2022-09-23T05:26:10.423Z,96593.47
2022-09-23T05:28:39.355Z,96594.28
2022-09-23T05:31:08.139Z,96587.78
2022-09-23T05:33:36.714Z,96583.91
2022-09-23T05:36:09.664Z,96587.41
2022-09-23T05:38:38.763Z,96587.06
2022-09-23T05:41:07.544Z,96573.06
2022-09-23T05:43:35.373Z,96601.66
2022-09-23T05:46:07.767Z,96578.72
2022-09-23T05:48:36.272Z,96582.81
2022-09-23T05:51:12.850Z,96588.63
2022-09-23T05:53:42.210Z,96585.03
2022-09-23T05:56:11.249Z,96584.44
2022-09-23T05:58:40.695Z,96595.50
2022-09-23T06:01:12.565Z,96589.84
2022-09-23T06:03:40.305Z,96587.81
2022-09-23T06:06:13.090Z,96588.09
2022-09-23T06:08:41.168Z,96586.50
2022-09-23T06:11:09.182Z,96585.34
2022-09-23T06:13:38.313Z,96586.53
2022-09-23T06:16:09.197Z,96589.84
2022-09-23T06:18:37.374Z,96586.69
2022-09-23T06:21:07.954Z,96586.78
2022-09-23T06:23:41.926Z,96584.28
2022-09-23T06:26:10.542Z,96577.88
2022-09-23T06:28:49.218Z,96445.81
2022-09-23T06:31:19.374Z,96569.88
2022-09-23T06:33:59.965Z,96575.31
2022-09-23T06:36:42.573Z,96571.44
2022-09-23T06:39:13.765Z,96564.63
2022-09-23T06:41:43.379Z,96572.72
2022-09-23T06:44:11.406Z,96565.63
2022-09-23T06:46:39.236Z,96569.94
2022-09-23T06:49:07.595Z,96570.47
2022-09-23T06:51:35.619Z,96566.88
2022-09-23T06:54:03.598Z,96572.97
2022-09-23T06:56:38.524Z,96569.28
2022-09-23T06:59:06.704Z,96566.88
2022-09-23T07:01:34.929Z,96569.50
2022-09-23T07:04:03.529Z,96577.75
2022-09-23T07:06:31.398Z,96357.81
2022-09-23T07:09:01.073Z,96424.22
2022-09-23T07:11:30.734Z,96578.28
2022-09-23T07:14:03.907Z,96567.56
2022-09-23T07:16:32.890Z,96567.97
2022-09-23T07:19:00.560Z,96580.41
2022-09-23T07:21:29.303Z,96569.88
2022-09-23T07:23:58.256Z,96564.75
2022-09-23T07:26:26.143Z,96561.00
2022-09-23T07:29:06.701Z,96566.78
2022-09-23T07:31:39.772Z,96566.59
2022-09-23T07:34:12.646Z,96560.94
2022-09-23T07:36:41.403Z,96573.47
2022-09-23T07:39:10.191Z,96561.00
2022-09-23T07:41:44.232Z,96570.13
2022-09-23T07:44:12.091Z,96576.44
2022-09-23T07:46:41.461Z,96573.94
2022-09-23T07:49:10.742Z,96576.72
2022-09-23T07:51:41.186Z,96567.97
2022-09-23T07:54:10.534Z,96570.50
2022-09-23T07:56:38.605Z,96565.91
2022-09-23T07:59:08.814Z,96572.38
2022-09-23T08:01:37.261Z,96568.56
2022-09-23T08:04:14.678Z,96563.56
2022-09-23T08:06:43.344Z,96567.22
2022-09-23T08:09:12.346Z,96573.00
2022-09-23T08:11:42.237Z,96575.50
2022-09-23T08:14:10.337Z,96572.75
2022-09-23T08:16:38.104Z,96572.09
2022-09-23T08:19:07.345Z,96575.50
2022-09-23T08:21:35.022Z,96579.06
2022-09-23T08:24:03.348Z,96583.13
2022-09-23T08:26:34.266Z,96573.50
2022-09-23T08:29:02.369Z,96575.69
2022-09-23T08:31:32.153Z,96577.94
2022-09-23T08:33:59.912Z,96575.69
2022-09-23T08:36:30.845Z,96571.84
2022-09-23T08:38:59.202Z,96567.81
2022-09-23T08:41:29.671Z,96569.88
2022-09-23T08:44:00.240Z,96417.53
2022-09-23T08:46:28.485Z,96609.66
2022-09-23T08:48:56.188Z,96569.22
2022-09-23T08:51:25.542Z,96571.47
2022-09-23T08:53:54.903Z,96567.97
2022-09-23T08:56:23.706Z,96556.97
2022-09-23T08:58:56.267Z,96569.34
2022-09-23T09:01:24.644Z,96567.34
2022-09-23T09:03:53.882Z,96564.53
2022-09-23T09:06:22.395Z,96566.97
2022-09-23T09:08:54.025Z,96567.25
2022-09-23T09:11:23.633Z,96564.78
2022-09-23T09:13:56.250Z,96561.53
2022-09-23T09:16:55.450Z,96564.97
2022-09-23T09:19:22.382Z,96549.16
2022-09-23T09:21:51.920Z,96548.84
2022-09-23T09:24:21.425Z,96547.59
2022-09-23T09:26:50.737Z,96552.72
2022-09-23T09:29:36.312Z,96543.97
2022-09-23T09:32:10.358Z,96541.91
2022-09-23T09:34:41.711Z,96539.72
2022-09-23T09:37:11.513Z,96540.84
2022-09-23T09:39:39.522Z,96540.34
2022-09-23T09:42:11.327Z,96559.69
2022-09-23T09:44:40.314Z,96527.06
2022-09-23T09:47:18.883Z,96524.13
2022-09-23T09:49:47.089Z,96532.97
2022-09-23T09:52:16.809Z,96523.66
2022-09-23T09:54:44.778Z,96522.06
2022-09-23T09:57:17.569Z,96522.00
2022-09-23T09:59:45.268Z,96522.75
2022-09-23T10:02:15.366Z,96517.34
2022-09-23T10:04:44.198Z,96518.34
2022-09-23T10:07:13.321Z,96518.63
2022-09-23T10:09:43.153Z,96506.88
2022-09-23T10:12:18.570Z,96513.19
2022-09-23T10:14:50.572Z,96511.25
2022-09-23T10:17:20.788Z,96508.94
2022-09-23T10:19:48.822Z,96508.44
2022-09-23T10:22:18.702Z,96499.59
2022-09-23T10:24:48.889Z,96504.69
2022-09-23T10:27:18.551Z,96497.97
2022-09-23T10:29:50.249Z,96504.13
2022-09-23T10:32:25.767Z,96497.94
2022-09-23T10:34:54.787Z,96502.69
2022-09-23T10:37:24.636Z,96500.00
2022-09-23T10:40:09.828Z,96497.38
2022-09-23T10:42:59.613Z,96497.88
2022-09-23T10:45:45.099Z,96502.75
2022-09-23T10:48:15.136Z,96498.09
2022-09-23T10:50:43.315Z,96495.28
2022-09-23T10:53:16.687Z,96486.88
2022-09-23T10:55:46.802Z,96485.81
2022-09-23T10:58:25.137Z,96489.78
2022-09-23T11:00:56.132Z,96480.13
2022-09-23T11:03:45.908Z,96474.66
2022-09-23T11:06:14.831Z,96472.56
2022-09-23T11:08:58.863Z,96475.56
2022-09-23T11:11:31.609Z,96468.13
2022-09-23T11:14:09.438Z,96465.94
2022-09-23T11:16:41.456Z,96465.88
2022-09-23T11:19:18.617Z,96468.16
2022-09-23T11:21:53.736Z,96466.47
2022-09-23T11:24:36.354Z,96472.25
2022-09-23T11:27:07.125Z,96459.31
2022-09-23T11:29:43.563Z,96452.41
2022-09-23T11:32:21.181Z,96452.56
2022-09-23T11:34:54.872Z,96445.16
2022-09-23T11:37:23.924Z,96446.53
2022-09-23T11:39:53.370Z,96456.91
2022-09-23T11:42:21.526Z,96448.97
2022-09-23T11:44:52.667Z,96439.53
2022-09-23T11:47:22.495Z,96436.38
2022-09-23T11:49:54.318Z,96439.88
2022-09-23T11:52:22.811Z,96436.34
2022-09-23T11:54:51.837Z,96442.91
2022-09-23T11:57:22.060Z,96446.56
2022-09-23T11:59:51.760Z,96436.69
2022-09-23T12:02:25.629Z,96443.16
2022-09-23T12:04:58.769Z,96445.22
2022-09-23T12:07:28.822Z,96439.78
2022-09-23T12:09:58.731Z,96431.09
2022-09-23T12:12:28.361Z,96436.31
2022-09-23T12:14:59.092Z,96432.06
2022-09-23T12:17:31.289Z,96432.16
2022-09-23T12:20:05.680Z,96429.00
2022-09-23T12:22:37.749Z,96425.75
2022-09-23T12:25:10.669Z,96434.78
2022-09-23T12:27:48.371Z,96426.56
2022-09-23T12:30:18.168Z,96426.94
2022-09-23T12:32:46.528Z,96433.22
2022-09-23T12:35:23.919Z,96424.09
2022-09-23T12:37:54.349Z,96259.53
2022-09-23T12:40:25.022Z,96420.09
2022-09-23T12:42:52.741Z,96415.78
2022-09-23T12:45:42.041Z,96414.44
2022-09-23T12:48:29.067Z,96416.91
2022-09-23T12:50:58.437Z,96413.25
2022-09-23T12:53:54.399Z,96404.31
2022-09-23T12:56:23.432Z,96408.91
2022-09-23T12:59:12.128Z,96404.16
2022-09-23T13:01:41.673Z,96202.34
2022-09-23T13:04:45.928Z,96397.53
2022-09-23T13:07:16.746Z,96391.03
2022-09-23T13:09:44.828Z,96398.13
2022-09-23T13:12:15.504Z,96392.22
2022-09-23T13:14:44.121Z,96384.88
2022-09-23T13:17:23.543Z,96390.88
2022-09-23T13:19:58.670Z,96381.25
2022-09-23T13:22:42.498Z,96396.41
2022-09-23T13:25:17.694Z,96391.31
2022-09-23T13:27:45.894Z,96397.38
2022-09-23T13:30:23.609Z,96390.16
2022-09-23T13:33:02.247Z,96387.09
2022-09-23T13:35:31.849Z,96384.78
2022-09-23T13:37:59.695Z,96386.25
2022-09-23T13:40:28.612Z,96381.34
2022-09-23T13:42:58.525Z,96380.94
2022-09-23T13:45:26.814Z,96382.38
2022-09-23T13:48:00.096Z,96376.06
2022-09-23T13:50:34.139Z,96373.81
2022-09-23T13:53:04.479Z,96373.06
2022-09-23T13:55:32.811Z,96367.41
2022-09-23T13:58:02.753Z,96375.81
2022-09-23T14:00:35.317Z,96363.06
2022-09-23T14:03:04.452Z,96366.81
2022-09-23T14:05:36.101Z,96360.03
2022-09-23T14:08:04.094Z,96366.66
2022-09-23T14:10:32.509Z,96361.28
2022-09-23T14:13:00.329Z,96371.34
2022-09-23T14:15:28.317Z,96356.75
2022-09-23T14:18:06.656Z,96353.44
2022-09-23T14:20:36.289Z,96356.53
2022-09-23T14:23:04.533Z,96355.72
2022-09-23T14:25:33.131Z,96356.13
2022-09-23T14:28:00.763Z,96354.66
2022-09-23T14:30:29.901Z,96343.41
2022-09-23T14:33:02.567Z,96342.56
2022-09-23T14:35:40.693Z,96345.22
2022-09-23T14:38:25.734Z,96343.84
2022-09-23T14:41:14.943Z,96343.38
2022-09-23T14:43:47.350Z,96340.69
2022-09-23T14:46:18.602Z,96338.88
2022-09-23T14:48:52.039Z,96148.69
2022-09-23T14:51:21.299Z,96329.69
2022-09-23T14:53:49.094Z,96325.16
2022-09-23T14:56:25.344Z,96328.38
2022-09-23T14:58:53.753Z,96330.41
2022-09-23T15:01:28.638Z,96331.69
2022-09-23T15:03:57.244Z,96328.09
2022-09-23T15:06:26.610Z,96330.13
2022-09-23T15:08:54.313Z,96329.88
2022-09-23T15:11:22.587Z,96325.59
2022-09-23T15:13:50.534Z,96330.00
2022-09-23T15:16:18.509Z,96333.31
2022-09-23T15:18:46.545Z,96339.59
2022-09-23T15:21:14.632Z,96333.81
2022-09-23T15:23:48.242Z,96333.41
2022-09-23T15:26:17.911Z,96332.38
2022-09-23T15:28:46.806Z,96330.81
2022-09-23T15:31:15.905Z,96336.28
2022-09-23T15:33:44.730Z,96333.13
2022-09-23T15:36:12.808Z,96329.91
2022-09-23T15:38:45.637Z,96334.00
2022-09-23T15:41:15.265Z,96332.19
2022-09-23T15:43:43.233Z,96334.28
2022-09-23T15:46:13.699Z,96330.25
2022-09-23T15:48:42.415Z,96332.38
2022-09-23T15:51:10.294Z,96335.81
2022-09-23T15:53:39.852Z,96338.56
2022-09-23T15:56:07.458Z,96338.72
2022-09-23T15:58:37.149Z,96338.97
2022-09-23T16:01:05.043Z,96342.09
2022-09-23T16:03:36.588Z,96340.66
2022-09-23T16:06:06.200Z,96338.22
2022-09-23T16:08:33.883Z,96330.09
2022-09-23T16:11:01.569Z,96320.19
2022-09-23T16:13:29.094Z,96321.81
2022-09-23T16:15:59.522Z,96323.84
2022-09-23T16:18:27.213Z,96358.75
2022-09-23T16:20:58.900Z,96331.84
2022-09-23T16:23:35.436Z,96326.19
2022-09-23T16:26:08.406Z,96326.00
2022-09-23T16:28:37.078Z,96323.19
2022-09-23T16:31:06.520Z,96323.53
2022-09-23T16:33:34.505Z,96320.69
2022-09-23T16:36:02.533Z,96326.22
2022-09-23T16:38:31.707Z,96319.25
2022-09-23T16:41:00.757Z,96317.56
2022-09-23T16:43:29.119Z,96313.78
2022-09-23T16:45:59.157Z,96317.38
2022-09-23T16:48:28.301Z,96318.47
2022-09-23T16:50:58.892Z,96320.38
2022-09-23T16:53:26.454Z,96315.16
2022-09-23T16:55:54.410Z,96322.28
2022-09-23T16:58:25.789Z,96333.47
2022-09-23T17:01:15.700Z,96341.53
2022-09-23T17:03:45.008Z,96335.69
2022-09-23T17:06:13.435Z,96339.97
2022-09-23T17:08:42.118Z,96335.53
2022-09-23T17:11:10.653Z,96340.28
2022-09-23T17:13:41.216Z,96340.91
2022-09-23T17:16:08.985Z,96341.22
2022-09-23T17:18:38.880Z,96342.16
2022-09-23T17:21:09.084Z,96334.56
2022-09-23T17:23:37.029Z,96332.19
2022-09-23T17:26:09.702Z,96337.72
2022-09-23T17:28:37.498Z,96331.28
2022-09-23T17:31:09.229Z,96326.19
2022-09-23T17:33:39.084Z,96355.31
2022-09-23T17:36:11.301Z,96319.38
2022-09-23T17:38:39.334Z,96330.63
2022-09-23T17:41:09.477Z,96328.50
2022-09-23T17:43:39.379Z,96335.31
2022-09-23T17:46:07.984Z,96327.28
2022-09-23T17:48:39.354Z,96321.94
2022-09-23T17:51:11.083Z,96321.97
2022-09-23T17:53:40.144Z,96322.13
2022-09-23T17:56:08.468Z,96317.88
2022-09-23T17:58:37.197Z,96320.06
2022-09-23T18:01:08.400Z,96316.56
2022-09-23T18:03:36.387Z,96317.13
2022-09-23T18:06:21.880Z,96320.97
2022-09-23T18:08:50.449Z,96315.44
2022-09-23T18:11:19.216Z,96322.25
2022-09-23T18:13:54.063Z,96312.16
2022-09-23T18:16:23.225Z,96343.75
2022-09-23T18:18:51.704Z,96312.78
2022-09-23T18:21:20.928Z,96314.34
2022-09-23T18:23:48.561Z,96311.19
2022-09-23T18:26:16.565Z,96304.00
2022-09-23T18:28:45.673Z,96307.50
2022-09-23T18:31:13.494Z,96308.34
2022-09-23T18:33:41.256Z,96313.03
2022-09-23T18:36:09.317Z,96311.00
2022-09-23T18:38:40.707Z,96312.25
2022-09-23T18:41:13.892Z,96312.75
2022-09-23T18:43:46.336Z,96317.00
2022-09-23T18:46:19.661Z,96313.84
2022-09-23T18:49:04.683Z,96316.84
2022-09-23T18:51:38.787Z,96310.38
2022-09-23T18:54:11.526Z,96299.38
2022-09-23T18:56:41.048Z,96295.03
2022-09-23T18:59:09.914Z,96303.19
2022-09-23T19:01:37.972Z,96080.03
2022-09-23T19:04:06.847Z,96306.50
2022-09-23T19:06:35.338Z,96305.44
2022-09-23T19:09:05.400Z,96309.81
2022-09-23T19:11:36.246Z,96313.94
2022-09-23T19:14:04.713Z,96310.38
2022-09-23T19:16:34.838Z,96302.94
2022-09-23T19:19:02.686Z,96313.84
2022-09-23T19:21:30.741Z,96320.25
2022-09-23T19:24:04.355Z,96307.16
2022-09-23T19:26:32.777Z,96313.09
2022-09-23T19:29:02.128Z,96322.78
2022-09-23T19:31:30.366Z,96318.88
2022-09-23T19:34:02.845Z,96314.44
2022-09-23T19:36:31.145Z,96314.13
2022-09-23T19:38:59.283Z,96317.16
2022-09-23T19:41:28.147Z,96307.44
2022-09-23T19:44:03.358Z,96302.00
2022-09-23T19:46:33.251Z,96301.69
2022-09-23T19:49:01.853Z,96295.94
2022-09-23T19:51:29.985Z,96294.56
2022-09-23T19:53:59.424Z,96288.56
2022-09-23T19:56:29.566Z,96288.38
2022-09-23T19:58:59.619Z,96286.59
2022-09-23T20:01:27.839Z,96289.47
2022-09-23T20:03:58.671Z,96286.47
2022-09-23T20:06:26.324Z,96290.34
2022-09-23T20:08:54.319Z,96293.63
2022-09-23T20:11:28.093Z,96284.41
2022-09-23T20:14:01.093Z,96287.34
2022-09-23T20:16:32.788Z,96290.91
2022-09-23T20:19:04.090Z,96284.50
2022-09-23T20:21:31.808Z,96285.41
2022-09-23T20:24:00.782Z,96276.66
2022-09-23T20:26:46.062Z,96277.78
2022-09-23T20:29:15.934Z,96280.94
2022-09-23T20:31:43.618Z,96281.81
2022-09-23T20:34:12.878Z,96282.72
2022-09-23T20:36:41.636Z,96283.38
2022-09-23T20:39:13.086Z,96277.84
2022-09-23T20:41:40.745Z,96271.72
2022-09-23T20:44:12.453Z,96279.13
2022-09-23T20:46:45.283Z,96266.22
2022-09-23T20:49:17.533Z,96270.19
2022-09-23T20:51:48.393Z,96265.88
2022-09-23T20:54:16.446Z,96268.38
2022-09-23T20:56:46.908Z,96277.81
2022-09-23T20:59:18.400Z,96279.88
2022-09-23T21:01:46.569Z,96266.13
2022-09-23T21:04:17.909Z,96258.78
2022-09-23T21:06:47.206Z,96252.50
2022-09-23T21:09:20.180Z,96261.97
2022-09-23T21:11:50.601Z,96265.25
2022-09-23T21:14:19.539Z,96261.38
2022-09-23T21:16:48.431Z,96259.50
2022-09-23T21:19:15.948Z,96255.84
2022-09-23T21:21:46.469Z,96261.81
2022-09-23T21:24:45.627Z,96268.31
2022-09-23T21:27:04.637Z,96271.13
2022-09-23T21:29:33.851Z,96274.31
2022-09-23T21:32:06.240Z,96266.41
2022-09-23T21:34:34.264Z,96266.69
2022-09-23T21:37:02.023Z,96272.28
2022-09-23T21:39:33.489Z,96261.47
2022-09-23T21:42:01.547Z,96265.94
2022-09-23T21:44:29.453Z,96267.88
2022-09-23T21:46:59.955Z,96270.97
2022-09-23T21:49:29.689Z,96268.22
2022-09-23T21:52:00.691Z,96267.25
2022-09-23T21:54:29.860Z,96277.28
2022-09-23T21:57:00.516Z,96287.97
2022-09-23T21:59:28.503Z,96294.72
2022-09-23T22:01:56.023Z,96285.66
2022-09-23T22:04:23.643Z,96283.41
2022-09-23T22:06:51.347Z,96271.88
2022-09-23T22:09:19.896Z,96262.75
2022-09-23T22:12:08.558Z,96269.41
2022-09-23T22:14:42.203Z,96272.13
2022-09-23T22:17:12.235Z,96276.47
2022-09-23T22:19:46.602Z,96267.63
2022-09-23T22:22:15.869Z,96274.41
2022-09-23T22:24:43.756Z,96271.00
2022-09-23T22:27:12.136Z,96272.47
2022-09-23T22:29:58.649Z,96272.66
2022-09-23T22:32:51.541Z,96277.69
2022-09-23T22:35:32.646Z,96281.47
2022-09-23T22:38:01.215Z,96276.84
2022-09-23T22:40:28.845Z,96259.97
2022-09-23T22:42:57.017Z,96275.22
2022-09-23T22:45:26.172Z,96275.78
2022-09-23T22:47:54.154Z,96264.22
2022-09-23T22:50:21.735Z,96267.47
2022-09-23T22:52:49.764Z,96259.56
2022-09-23T22:55:17.387Z,96266.66
2022-09-23T22:57:46.206Z,96259.84
2022-09-23T23:00:14.325Z,96258.41
2022-09-23T23:02:44.300Z,96252.53
2022-09-23T23:05:12.322Z,96249.31
2022-09-23T23:07:40.539Z,96259.09
2022-09-23T23:10:22.978Z,96254.50
2022-09-23T23:12:56.163Z,96248.06
2022-09-23T23:15:25.833Z,96254.50
2022-09-23T23:17:59.257Z,96252.41
2022-09-23T23:20:29.779Z,96249.91
2022-09-23T23:22:57.378Z,96243.81
2022-09-23T23:25:27.068Z,96241.63
2022-09-23T23:27:56.965Z,96231.75
2022-09-23T23:30:27.096Z,96226.16
2022-09-23T23:32:56.502Z,96222.34
2022-09-23T23:35:24.089Z,96227.81
2022-09-23T23:37:52.129Z,96220.97
2022-09-23T23:40:23.695Z,96224.47
2022-09-23T23:42:51.629Z,96230.84
2022-09-23T23:45:19.391Z,96222.25
2022-09-23T23:47:46.917Z,96226.34
2022-09-23T23:50:16.459Z,96230.28
2022-09-23T23:52:44.038Z,95986.13
2022-09-23T23:55:11.645Z,96219.03
2022-09-23T23:57:39.593Z,96221.06
